Time;durP1;ratioP1;P1;durP2;ratioP2;P2;SDS_P1;SDS_P2;PMS_P1;PMS_P2;Temp;Humidity;BMP_temperature;BMP_pressure;BME280_temperature;BME280_humidity;BME280_pressure;Samples;Min_cycle;Max_cycle;Signal;HPM_P1;HPM_P2
2021/09/30 00:02:03;;;;;;;6.18;1.90;;;;;;;7.46;97.29;99622.81;5046928;28;20025;-64
2021/09/30 00:04:28;;;;;;;4.28;1.85;;;;;;;7.39;97.68;99625.38;5059069;28;20020;-64
2021/09/30 00:06:54;;;;;;;8.95;2.10;;;;;;;7.34;97.41;99617.47;5065969;28;20013;-64
2021/09/30 00:09:19;;;;;;;10.10;1.95;;;;;;;7.26;97.41;99628.75;5064767;28;20028;-64
2021/09/30 00:11:48;;;;;;;7.43;2.08;;;;;;;7.21;98.13;99636.56;5066200;28;20088;-64
2021/09/30 00:14:41;;;;;;;3.72;1.90;;;;;;;7.17;98.39;99626.03;5054607;28;20049;-64
2021/09/30 00:35:56;;;;;;;3.42;1.40;;;;;;;6.74;98.33;99643.00;5065699;28;20020;-64
2021/09/30 00:46:40;;;;;;;12.90;1.70;;;;;;;6.47;98.50;99653.16;5046145;28;20176;-64
2021/09/30 00:51:48;;;;;;;7.88;2.08;;;;;;;6.51;98.84;99654.94;5046745;28;20052;-64
2021/09/30 02:29:09;;;;;;;10.15;1.98;;;;;;;6.09;98.97;99654.34;5062621;28;20105;-64
2021/09/30 02:59:20;;;;;;;10.18;1.88;;;;;;;5.91;99.20;99674.97;5043939;28;20044;-64
2021/09/30 03:01:47;;;;;;;5.68;2.08;;;;;;;5.90;99.66;99679.34;5043889;28;20376;-64
2021/09/30 03:04:13;;;;;;;4.40;1.92;;;;;;;5.83;100.00;99666.16;5043723;28;20221;-64
2021/09/30 03:06:41;;;;;;;8.75;1.90;;;;;;;5.79;100.00;99680.00;5043834;28;20029;-64
2021/09/30 03:09:08;;;;;;;9.80;2.40;;;;;;;5.70;100.00;99679.84;5044852;28;20021;-64
2021/09/30 03:11:37;;;;;;;6.50;2.40;;;;;;;5.74;100.00;99671.19;5044069;28;20309;-64
2021/09/30 03:14:04;;;;;;;9.05;2.83;;;;;;;5.81;100.00;99683.50;5048059;28;20045;-64
2021/09/30 03:16:49;;;;;;;4.55;2.30;;;;;;;5.84;100.00;99673.13;5046832;28;20021;-64
2021/09/30 03:24:31;;;;;;;3.78;1.80;;;;;;;5.94;99.46;99685.47;5045029;28;20100;-64
2021/09/30 03:26:56;;;;;;;4.95;1.92;;;;;;;5.89;98.78;99676.72;5055084;28;20040;-64
2021/09/30 03:29:22;;;;;;;9.07;1.88;;;;;;;5.79;98.93;99690.44;5065532;28;20225;-64
2021/09/30 03:31:49;;;;;;;5.32;2.33;;;;;;;5.73;99.25;99685.13;5061377;28;20017;-64
2021/09/30 03:34:16;;;;;;;5.85;1.83;;;;;;;5.76;99.46;99686.03;5048581;28;20321;-64
2021/09/30 03:36:41;;;;;;;8.73;2.25;;;;;;;5.63;99.11;99691.91;5047373;28;20044;-64
2021/09/30 03:39:14;;;;;;;7.65;2.40;;;;;;;5.55;99.69;99685.69;5051700;28;20316;-64
2021/09/30 03:41:42;;;;;;;5.38;2.00;;;;;;;5.68;100.00;99681.53;5066739;28;20021;-64
2021/09/30 03:44:09;;;;;;;5.60;1.85;;;;;;;5.70;100.00;99685.06;5065358;28;20255;-64
2021/09/30 03:46:34;;;;;;;6.35;2.33;;;;;;;5.53;99.31;99686.50;5066371;28;20025;-64
2021/09/30 03:49:07;;;;;;;4.65;2.63;;;;;;;5.57;100.00;99678.75;5066275;28;20072;-64
2021/09/30 03:51:48;;;;;;;4.25;2.10;;;;;;;5.64;99.75;99684.97;5066568;28;20017;-64
2021/09/30 03:56:57;;;;;;;8.85;2.30;;;;;;;5.54;99.08;99688.28;5056619;28;20044;-64
2021/09/30 03:59:22;;;;;;;4.35;2.55;;;;;;;5.55;99.65;99687.41;5066456;28;20062;-64
2021/09/30 04:01:55;;;;;;;8.68;2.60;;;;;;;5.59;99.36;99676.16;5061756;28;20029;-64
2021/09/30 04:04:26;;;;;;;7.30;2.40;;;;;;;5.58;99.57;99680.53;5046866;28;20036;-64
2021/09/30 04:06:55;;;;;;;13.90;2.40;;;;;;;5.53;99.47;99682.16;5051011;28;20086;-64
2021/09/30 04:09:26;;;;;;;8.25;2.25;;;;;;;5.49;98.96;99682.09;5064139;28;20059;-64
2021/09/30 04:11:56;;;;;;;16.58;6.80;;;;;;;5.43;99.10;99680.25;5047300;28;20083;-64
2021/09/30 04:14:21;;;;;;;21.05;5.97;;;;;;;5.39;99.72;99688.00;5046796;28;20041;-64
2021/09/30 04:16:47;;;;;;;14.70;4.97;;;;;;;5.39;99.96;99683.66;5049721;28;20435;-64
2021/09/30 04:19:17;;;;;;;12.93;4.68;;;;;;;5.44;99.18;99687.22;5063145;28;20252;-64
2021/09/30 04:21:45;;;;;;;8.30;3.40;;;;;;;5.31;99.13;99689.63;5064844;28;20029;-64
2021/09/30 04:24:11;;;;;;;8.30;3.33;;;;;;;5.20;99.01;99696.34;5050926;28;20022;-64
2021/09/30 04:26:36;;;;;;;7.53;3.20;;;;;;;5.25;99.68;99697.34;5052796;28;20020;-64
2021/09/30 04:29:02;;;;;;;8.77;3.03;;;;;;;5.30;100.00;99703.50;5064866;28;20083;-64
2021/09/30 04:31:27;;;;;;;9.27;2.72;;;;;;;5.27;99.91;99709.53;5064883;28;20032;-64
2021/09/30 04:33:53;;;;;;;6.55;2.90;;;;;;;5.30;100.00;99714.81;5051408;28;20016;-64
2021/09/30 04:36:21;;;;;;;8.70;3.38;;;;;;;5.34;100.00;99705.31;5059673;28;20021;-64
2021/09/30 04:38:46;;;;;;;6.70;3.20;;;;;;;5.24;100.00;99704.28;5051180;28;20092;-64
2021/09/30 04:41:12;;;;;;;8.80;3.05;;;;;;;5.21;99.79;99714.66;5046704;28;20021;-64
2021/09/30 04:43:38;;;;;;;7.15;2.83;;;;;;;5.18;99.54;99721.53;5062637;28;20074;-64
2021/09/30 04:46:04;;;;;;;9.82;2.67;;;;;;;5.08;99.18;99722.22;5066034;28;20036;-64
2021/09/30 04:48:29;;;;;;;9.27;4.57;;;;;;;5.05;99.81;99727.38;5066253;28;20025;-64
2021/09/30 04:50:54;;;;;;;10.73;5.70;;;;;;;4.94;99.50;99721.97;5065837;28;20021;-64
2021/09/30 04:53:20;;;;;;;14.65;5.90;;;;;;;4.99;99.11;99722.03;5065918;28;20024;-64
2021/09/30 04:55:45;;;;;;;21.38;8.40;;;;;;;4.84;98.37;99716.53;5065864;28;20087;-64
2021/09/30 04:58:11;;;;;;;12.43;3.60;;;;;;;4.96;98.00;99708.91;5065843;28;20079;-64
2021/09/30 05:00:36;;;;;;;8.20;3.28;;;;;;;4.95;99.13;99710.66;5065794;28;20025;-64
2021/09/30 05:03:02;;;;;;;5.63;3.10;;;;;;;4.90;99.36;99717.50;5065654;28;20139;-64
2021/09/30 05:05:27;;;;;;;6.78;3.38;;;;;;;4.96;99.47;99717.63;5065650;28;20040;-64
2021/09/30 05:07:53;;;;;;;9.52;4.10;;;;;;;4.91;99.34;99716.69;5065640;28;20321;-64
2021/09/30 05:10:20;;;;;;;9.43;3.45;;;;;;;4.75;99.13;99714.59;5065513;28;20272;-64
2021/09/30 05:12:48;;;;;;;12.48;4.05;;;;;;;4.83;99.83;99717.34;5065337;28;20037;-64
2021/09/30 05:15:13;;;;;;;11.60;3.95;;;;;;;4.84;99.53;99719.13;5065751;28;20021;-64
2021/09/30 05:17:39;;;;;;;7.50;4.13;;;;;;;4.80;99.20;99722.50;5065440;28;20288;-64
2021/09/30 05:20:05;;;;;;;7.85;3.67;;;;;;;4.74;98.71;99725.88;5065621;28;20024;-64
2021/09/30 05:22:31;;;;;;;6.00;3.30;;;;;;;4.68;98.93;99728.34;5065349;28;20277;-64
2021/09/30 05:24:56;;;;;;;6.75;3.10;;;;;;;4.78;98.61;99732.03;5065305;28;20028;-64
2021/09/30 05:27:22;;;;;;;7.55;4.07;;;;;;;4.79;97.96;99736.41;5065236;28;20295;-64
2021/09/30 05:29:47;;;;;;;6.93;3.38;;;;;;;4.66;97.85;99718.72;5065120;28;20224;-64
2021/09/30 05:32:13;;;;;;;9.30;3.10;;;;;;;4.50;97.28;99731.44;5065187;28;20221;-64
2021/09/30 05:34:38;;;;;;;8.82;3.58;;;;;;;4.61;98.38;99734.28;5065115;28;20075;-64
2021/09/30 05:37:04;;;;;;;6.53;3.20;;;;;;;4.66;98.33;99729.16;5065330;28;20020;-64
2021/09/30 05:39:29;;;;;;;6.80;3.33;;;;;;;4.64;98.01;99723.03;5065022;28;20176;-64
2021/09/30 05:41:56;;;;;;;5.07;2.97;;;;;;;4.73;97.64;99731.03;5064972;28;20028;-64
2021/09/30 05:44:24;;;;;;;6.22;3.17;;;;;;;4.76;97.50;99733.72;5065155;28;20317;-64
2021/09/30 05:46:53;;;;;;;6.60;2.50;;;;;;;4.64;96.48;99723.03;5064840;28;20020;-64
2021/09/30 05:49:21;;;;;;;5.85;3.20;;;;;;;4.68;96.22;99724.88;5064799;28;20275;-64
2021/09/30 05:51:46;;;;;;;5.93;3.00;;;;;;;4.68;96.49;99724.88;5064664;28;20212;-64
2021/09/30 05:54:11;;;;;;;9.38;3.00;;;;;;;4.67;96.77;99723.09;5063586;28;20048;-64
2021/09/30 05:56:37;;;;;;;7.75;3.85;;;;;;;4.79;97.05;99739.91;5064704;28;20052;-64
2021/09/30 05:59:02;;;;;;;8.82;3.25;;;;;;;4.89;97.00;99731.41;5064708;28;20212;-64
2021/09/30 06:14:41;;;;;;;5.45;2.58;;;;;;;6.50;93.37;99726.41;5064810;28;20031;-64
2021/09/30 06:17:06;;;;;;;4.75;2.63;;;;;;;6.63;91.09;99738.81;5064409;28;20096;-64
2021/09/30 06:19:31;;;;;;;4.10;2.65;;;;;;;7.02;90.42;99738.47;5064618;28;20230;-64
2021/09/30 06:21:58;;;;;;;4.15;2.42;;;;;;;7.37;89.03;99731.88;5064278;28;20296;-64
2021/09/30 06:24:23;;;;;;;4.63;2.45;;;;;;;7.58;86.46;99740.84;5064266;28;20024;-64
2021/09/30 06:26:50;;;;;;;7.43;2.63;;;;;;;8.21;85.61;99733.53;5064144;28;20021;-64
2021/09/30 06:29:16;;;;;;;4.97;2.42;;;;;;;8.64;83.65;99740.84;5064095;28;20419;-64
2021/09/30 06:31:42;;;;;;;4.15;2.65;;;;;;;8.99;82.04;99748.91;5064347;28;20017;-64
2021/09/30 06:34:07;;;;;;;8.35;2.33;;;;;;;9.21;81.23;99749.88;5062930;28;20332;-64
2021/09/30 06:36:34;;;;;;;5.43;2.20;;;;;;;9.15;80.23;99755.09;5064036;28;20243;-64
2021/09/30 06:38:59;;;;;;;6.97;2.63;;;;;;;9.33;81.11;99757.81;5062825;28;20020;-64
2021/09/30 06:41:25;;;;;;;5.20;2.65;;;;;;;9.65;80.29;99748.25;5064002;28;20092;-64
2021/09/30 06:43:50;;;;;;;6.95;3.10;;;;;;;9.08;80.91;99755.94;5063968;28;20395;-64
2021/09/30 06:46:16;;;;;;;5.30;2.40;;;;;;;9.39;81.66;99755.16;5063933;28;20062;-64
2021/09/30 06:48:41;;;;;;;7.57;3.10;;;;;;;9.57;79.36;99753.50;5063853;28;20146;-64
2021/09/30 06:51:07;;;;;;;6.55;3.00;;;;;;;9.59;78.87;99754.34;5062611;28;20032;-64
2021/09/30 06:53:32;;;;;;;7.47;3.42;;;;;;;10.60;77.64;99759.72;5063823;28;20259;-64
2021/09/30 06:56:02;;;;;;;14.55;3.80;;;;;;;10.62;75.79;99744.75;5063792;28;20312;-64
2021/09/30 06:58:28;;;;;;;10.57;3.97;;;;;;;11.08;75.91;99756.06;5064076;28;20024;-64
2021/09/30 07:00:56;;;;;;;10.40;4.07;;;;;;;10.53;76.51;99760.56;5063754;28;20024;-64
2021/09/30 07:03:26;;;;;;;8.38;4.60;;;;;;;9.99;79.81;99763.19;5064700;28;20328;-64
2021/09/30 07:05:52;;;;;;;7.40;3.65;;;;;;;11.01;77.14;99763.09;5067924;28;20017;-64
2021/09/30 07:08:17;;;;;;;10.45;4.35;;;;;;;11.31;75.09;99767.38;5067853;28;20027;-64
2021/09/30 07:10:43;;;;;;;11.45;5.30;;;;;;;12.16;75.25;99766.91;5067746;28;20017;-64
2021/09/30 07:13:08;;;;;;;10.05;4.00;;;;;;;12.60;72.65;99764.72;5067589;28;20104;-64
2021/09/30 07:15:34;;;;;;;11.20;3.67;;;;;;;12.54;73.87;99770.09;5067770;28;20025;-64
2021/09/30 07:18:10;;;;;;;11.85;4.53;;;;;;;11.80;76.43;99769.78;5067659;28;20027;-64
2021/09/30 07:20:35;;;;;;;7.75;3.38;;;;;;;11.67;77.19;99769.88;5067749;28;20066;-64
2021/09/30 07:23:01;;;;;;;9.45;4.05;;;;;;;12.01;74.71;99767.00;5067623;28;20013;-65
2021/09/30 07:25:26;;;;;;;8.50;4.22;;;;;;;11.82;77.67;99770.66;5067582;28;20017;-65
2021/09/30 07:27:52;;;;;;;9.50;3.95;;;;;;;12.14;76.71;99768.66;5067522;28;20016;-65
2021/09/30 07:30:17;;;;;;;5.90;3.47;;;;;;;12.39;76.15;99769.34;5067440;28;20292;-65
2021/09/30 07:32:43;;;;;;;7.60;3.38;;;;;;;12.79;74.46;99770.72;5067482;28;20031;-65
2021/09/30 07:35:08;;;;;;;11.43;3.72;;;;;;;12.87;74.05;99764.47;5067430;28;20020;-65
2021/09/30 07:37:34;;;;;;;6.55;2.67;;;;;;;13.30;73.12;99764.00;5067333;28;20017;-65
2021/09/30 07:39:59;;;;;;;11.73;2.35;;;;;;;13.46;72.62;99766.44;5067330;28;20363;-65
2021/09/30 07:42:26;;;;;;;8.95;2.75;;;;;;;13.44;73.67;99759.44;5067248;28;20017;-65
2021/09/30 07:44:52;;;;;;;7.85;2.90;;;;;;;13.53;74.99;99764.59;5067191;28;20070;-65
2021/09/30 07:47:17;;;;;;;11.50;3.90;;;;;;;13.82;74.09;99775.63;5067158;28;20251;-65
2021/09/30 07:49:42;;;;;;;5.97;2.40;;;;;;;14.45;73.27;99769.38;5067067;28;20258;-65
2021/09/30 07:52:08;;;;;;;7.03;1.98;;;;;;;14.89;72.58;99770.38;5067108;28;20020;-65
2021/09/30 07:54:33;;;;;;;5.38;1.92;;;;;;;14.85;72.20;99760.72;5067020;28;20247;-65
2021/09/30 07:56:59;;;;;;;7.38;1.92;;;;;;;15.10;70.81;99772.59;5066936;28;20021;-65
2021/09/30 07:59:26;;;;;;;11.43;1.85;;;;;;;15.17;69.56;99778.66;5066910;28;20041;-65
2021/09/30 08:01:51;;;;;;;12.95;2.47;;;;;;;14.58;71.27;99776.22;5066873;28;20017;-65
2021/09/30 08:04:16;;;;;;;13.73;2.88;;;;;;;15.05;70.23;99761.22;5066782;28;20084;-65
2021/09/30 08:06:42;;;;;;;9.98;2.28;;;;;;;16.12;66.30;99764.22;5066805;28;20066;-65
2021/09/30 08:09:07;;;;;;;8.82;1.98;;;;;;;16.13;66.21;99763.28;5066663;28;20052;-65
2021/09/30 08:11:33;;;;;;;7.30;2.10;;;;;;;16.06;67.71;99766.13;5067012;28;20040;-65
2021/09/30 08:13:58;;;;;;;5.90;1.52;;;;;;;17.24;64.19;99763.06;5066233;28;20041;-65
2021/09/30 08:16:25;;;;;;;10.40;2.15;;;;;;;16.46;65.88;99759.84;5066634;28;20017;-65
2021/09/30 08:18:50;;;;;;;7.78;1.50;;;;;;;15.71;67.82;99751.00;5066539;28;20088;-65
2021/09/30 08:21:16;;;;;;;8.75;1.98;;;;;;;15.73;66.86;99759.81;5066777;28;20186;-65
2021/09/30 08:23:43;;;;;;;6.78;2.20;;;;;;;15.41;69.04;99756.09;5066447;28;20055;-65
2021/09/30 08:26:09;;;;;;;8.52;1.88;;;;;;;15.21;71.11;99753.81;5066440;28;20021;-65
2021/09/30 08:28:36;;;;;;;12.20;2.17;;;;;;;15.40;69.47;99765.84;5066415;28;20024;-65
2021/09/30 08:31:05;;;;;;;12.73;1.88;;;;;;;16.08;67.29;99759.91;5066271;28;20021;-65
2021/09/30 08:33:32;;;;;;;6.38;1.60;;;;;;;16.71;66.08;99755.66;5066282;28;20314;-65
2021/09/30 08:35:59;;;;;;;6.57;1.73;;;;;;;16.20;65.90;99756.06;5066210;28;20020;-65
2021/09/30 08:38:25;;;;;;;7.97;1.58;;;;;;;15.81;67.53;99747.25;5066446;28;20017;-65
2021/09/30 08:40:51;;;;;;;6.32;1.52;;;;;;;16.96;64.81;99756.75;5066152;28;20040;-65
2021/09/30 08:43:17;;;;;;;6.25;1.75;;;;;;;18.08;62.21;99749.00;5066094;28;20029;-65
2021/09/30 08:45:43;;;;;;;11.15;2.30;;;;;;;17.69;61.42;99736.94;5066060;28;20316;-65
2021/09/30 08:48:08;;;;;;;7.88;1.75;;;;;;;17.62;61.77;99731.81;5066023;28;20040;-65
2021/09/30 08:50:38;;;;;;;10.32;2.22;;;;;;;16.90;62.87;99746.25;5065889;28;20021;-65
2021/09/30 08:53:13;;;;;;;8.82;1.85;;;;;;;16.76;63.28;99753.75;5066150;28;20021;-65
2021/09/30 08:55:40;;;;;;;8.00;1.67;;;;;;;16.78;64.49;99751.94;5065927;28;20025;-65
2021/09/30 08:58:07;;;;;;;8.57;1.67;;;;;;;17.78;62.78;99746.41;5065854;28;20404;-65
2021/09/30 09:00:36;;;;;;;9.05;2.70;;;;;;;18.02;60.02;99737.63;5065781;28;20067;-65
2021/09/30 09:03:01;;;;;;;23.02;3.30;;;;;;;18.70;59.91;99738.94;5065624;28;20024;-65
2021/09/30 09:05:27;;;;;;;7.38;1.63;;;;;;;19.35;56.10;99750.84;5065693;28;20085;-65
2021/09/30 09:08:01;;;;;;;15.07;2.45;;;;;;;19.34;55.08;99741.09;5065651;28;20216;-65
2021/09/30 09:10:29;;;;;;;7.38;1.65;;;;;;;19.89;54.72;99738.03;5065508;28;20025;-65
2021/09/30 09:13:09;;;;;;;8.63;2.15;;;;;;;19.85;54.19;99738.22;5065374;28;20443;-65
2021/09/30 09:15:42;;;;;;;6.20;1.33;;;;;;;20.03;53.64;99735.69;5066139;28;20027;-65
2021/09/30 09:18:34;;;;;;;10.65;1.42;;;;;;;20.30;54.04;99742.63;5065540;28;20027;-65
2021/09/30 09:21:06;;;;;;;12.95;1.83;;;;;;;20.66;53.36;99742.91;5065064;28;20083;-65
2021/09/30 09:23:33;;;;;;;8.32;1.48;;;;;;;20.92;53.15;99751.53;5065426;28;20113;-65
2021/09/30 09:26:13;;;;;;;11.05;1.88;;;;;;;20.78;51.75;99745.94;5064611;28;20021;-65
2021/09/30 09:28:59;;;;;;;7.85;1.67;;;;;;;20.02;56.12;99750.00;5065264;28;20024;-65
2021/09/30 09:31:38;;;;;;;8.40;1.58;;;;;;;20.76;52.70;99739.75;5065209;28;20021;-65
2021/09/30 09:34:22;;;;;;;8.02;1.40;;;;;;;20.68;52.64;99749.94;5065415;28;20092;-65
2021/09/30 09:36:50;;;;;;;8.70;1.10;;;;;;;20.84;52.64;99759.06;5065132;28;20119;-65
2021/09/30 09:39:31;;;;;;;13.40;2.78;;;;;;;21.02;51.68;99750.28;5065063;28;20324;-65
2021/09/30 09:42:16;;;;;;;9.98;1.33;;;;;;;20.45;51.31;99758.06;5065005;28;20088;-65
2021/09/30 09:45:00;;;;;;;10.60;1.70;;;;;;;20.39;53.32;99760.97;5065038;28;20327;-65
2021/09/30 09:47:32;;;;;;;12.60;1.60;;;;;;;19.86;54.00;99748.84;5065147;28;20067;-65
2021/09/30 09:50:30;;;;;;;7.07;1.52;;;;;;;20.21;52.29;99740.34;5063611;28;20031;-65
2021/09/30 09:53:01;;;;;;;9.52;1.80;;;;;;;20.31;52.61;99730.16;5063956;28;20029;-65
2021/09/30 09:55:41;;;;;;;10.50;1.42;;;;;;;20.49;52.90;99732.91;5064786;28;20126;-65
2021/09/30 09:58:11;;;;;;;8.75;1.65;;;;;;;20.07;54.75;99731.97;5064865;28;20342;-65
2021/09/30 10:00:36;;;;;;;13.05;1.42;;;;;;;19.75;55.47;99727.03;5064660;28;20021;-65
2021/09/30 10:03:13;;;;;;;13.10;1.60;;;;;;;20.07;53.85;99731.97;5064546;28;20131;-65
2021/09/30 10:05:40;;;;;;;8.77;1.58;;;;;;;20.42;53.94;99739.47;5064570;28;20024;-65
2021/09/30 10:08:07;;;;;;;16.83;1.98;;;;;;;19.36;56.32;99725.88;5064522;28;20075;-65
2021/09/30 10:10:34;;;;;;;9.32;1.52;;;;;;;18.20;58.23;99726.41;5064645;28;20312;-65
2021/09/30 10:13:00;;;;;;;6.57;1.45;;;;;;;18.34;56.32;99725.03;5064261;28;20358;-65
2021/09/30 10:15:26;;;;;;;7.88;1.42;;;;;;;17.61;57.78;99717.63;5064392;28;20025;-65
2021/09/30 10:17:52;;;;;;;6.75;1.45;;;;;;;18.51;58.04;99717.34;5064381;28;20021;-65
2021/09/30 10:20:17;;;;;;;11.40;2.00;;;;;;;19.30;52.40;99715.41;5064294;28;20216;-65
2021/09/30 10:22:50;;;;;;;5.40;1.35;;;;;;;19.67;55.83;99710.41;5064300;28;20017;-65
2021/09/30 10:25:16;;;;;;;10.10;1.50;;;;;;;18.99;53.35;99706.78;5064306;28;20021;-65
2021/09/30 10:27:43;;;;;;;10.55;1.67;;;;;;;18.72;55.65;99715.75;5064190;28;20032;-65
2021/09/30 10:30:31;;;;;;;7.38;1.20;;;;;;;18.78;55.86;99710.19;5064073;28;20052;-65
2021/09/30 10:32:58;;;;;;;9.40;1.38;;;;;;;19.47;54.97;99707.66;5064167;28;20024;-65
2021/09/30 10:35:35;;;;;;;10.05;1.80;;;;;;;19.56;56.14;99699.31;5064089;28;20025;-65
2021/09/30 10:38:19;;;;;;;5.15;1.20;;;;;;;20.09;54.00;99703.38;5064277;28;20032;-65
2021/09/30 10:41:05;;;;;;;7.38;1.20;;;;;;;19.59;53.25;99698.31;5063978;28;20040;-65
2021/09/30 10:43:44;;;;;;;9.60;1.05;;;;;;;19.14;55.82;99703.53;5063223;28;20088;-65
2021/09/30 10:46:22;;;;;;;9.00;0.95;;;;;;;18.76;55.03;99701.38;5063303;28;20025;-65
2021/09/30 10:48:50;;;;;;;6.80;1.13;;;;;;;19.20;55.65;99703.31;5061827;28;20024;-65
2021/09/30 10:51:16;;;;;;;11.05;1.23;;;;;;;19.40;55.66;99706.16;5063176;28;20271;-65
2021/09/30 10:53:44;;;;;;;10.13;1.17;;;;;;;19.78;53.33;99708.22;5063237;28;20025;-65
2021/09/30 10:56:29;;;;;;;10.80;1.10;;;;;;;19.71;51.64;99705.84;5062475;28;20244;-65
2021/09/30 10:59:19;;;;;;;9.25;1.30;;;;;;;18.94;52.77;99703.38;5063467;28;20017;-65
2021/09/30 11:01:47;;;;;;;6.30;1.35;;;;;;;18.04;56.37;99703.84;5062269;28;20029;-65
2021/09/30 11:04:17;;;;;;;7.70;1.27;;;;;;;18.52;52.50;99700.47;5062744;28;20036;-65
2021/09/30 11:07:13;;;;;;;5.78;1.08;;;;;;;18.52;54.43;99696.91;5062872;28;20346;-65
2021/09/30 11:09:38;;;;;;;11.13;1.27;;;;;;;18.90;52.99;99699.09;5062632;28;20063;-65
2021/09/30 11:12:12;;;;;;;8.43;1.23;;;;;;;18.85;53.72;99701.03;5061600;28;20017;-65
2021/09/30 11:14:53;;;;;;;5.80;1.25;;;;;;;17.94;56.76;99697.06;5062773;28;20031;-65
2021/09/30 11:17:38;;;;;;;8.38;1.13;;;;;;;17.61;57.65;99698.09;5062756;28;20255;-65
2021/09/30 11:20:41;;;;;;;11.80;1.17;;;;;;;17.45;56.50;99681.75;5062670;28;20020;-65
2021/09/30 11:23:45;;;;;;;6.00;0.90;;;;;;;18.27;53.73;99690.63;5060748;28;20086;-65
2021/09/30 11:26:11;;;;;;;7.72;0.95;;;;;;;18.62;52.46;99685.88;5060692;28;20332;-65
2021/09/30 11:28:36;;;;;;;8.73;0.80;;;;;;;18.94;49.01;99684.72;5060702;28;20029;-65
2021/09/30 11:31:26;;;;;;;5.75;1.08;;;;;;;18.76;51.19;99680.91;5060646;28;20040;-65
2021/09/30 11:33:57;;;;;;;5.65;1.20;;;;;;;18.97;50.94;99673.94;5060239;28;20032;-65
2021/09/30 11:36:30;;;;;;;9.48;1.15;;;;;;;19.11;52.37;99671.66;5060693;28;20036;-65
2021/09/30 11:38:57;;;;;;;6.35;1.10;;;;;;;19.14;50.57;99660.81;5060660;28;20037;-65
2021/09/30 11:41:34;;;;;;;9.88;1.05;;;;;;;19.36;48.63;99656.44;5060559;28;20033;-65
2021/09/30 11:44:00;;;;;;;5.50;0.80;;;;;;;19.31;49.57;99668.25;5060586;28;20031;-65
2021/09/30 11:46:30;;;;;;;4.85;1.35;;;;;;;19.18;50.18;99667.81;5060296;28;20339;-65
2021/09/30 11:49:04;;;;;;;6.13;1.02;;;;;;;19.17;49.92;99660.72;5060773;28;20025;-65
2021/09/30 11:51:38;;;;;;;7.05;0.82;;;;;;;19.06;49.09;99647.78;5064336;28;20024;-65
2021/09/30 11:54:04;;;;;;;8.98;0.93;;;;;;;18.53;49.19;99645.31;5065357;28;20052;-65
2021/09/30 11:56:45;;;;;;;3.95;0.75;;;;;;;18.72;49.70;99646.41;5066129;28;20021;-65
2021/09/30 11:59:11;;;;;;;6.72;0.88;;;;;;;18.71;52.72;99640.22;5066086;28;20032;-65
2021/09/30 12:01:45;;;;;;;9.05;1.40;;;;;;;18.65;51.60;99644.88;5065598;28;20092;-65
2021/09/30 12:04:13;;;;;;;6.50;0.88;;;;;;;18.68;50.17;99635.00;5064783;28;20040;-65
2021/09/30 12:06:42;;;;;;;5.60;0.80;;;;;;;18.14;49.06;99625.34;5065964;28;20028;-65
2021/09/30 12:09:10;;;;;;;7.32;1.15;;;;;;;17.51;54.68;99627.44;5065793;28;20032;-65
2021/09/30 12:11:36;;;;;;;5.55;0.95;;;;;;;17.23;58.40;99612.31;5065816;28;20094;-65
2021/09/30 12:14:07;;;;;;;10.23;1.60;;;;;;;16.97;61.04;99606.91;5065198;28;20045;-65
2021/09/30 12:16:33;;;;;;;8.63;1.30;;;;;;;17.55;60.70;99605.13;5065728;28;20386;-65
2021/09/30 12:19:03;;;;;;;6.63;1.27;;;;;;;17.28;60.13;99605.03;5065641;28;20024;-65
2021/09/30 12:21:40;;;;;;;8.95;1.25;;;;;;;17.18;59.33;99598.25;5065617;28;20028;-65
2021/09/30 12:24:09;;;;;;;6.35;1.15;;;;;;;16.86;59.90;99595.69;5065847;28;20021;-64
2021/09/30 12:26:35;;;;;;;4.28;0.85;;;;;;;16.72;63.02;99597.88;5065115;28;20201;-64
2021/09/30 12:29:01;;;;;;;6.38;1.15;;;;;;;16.71;61.86;99592.63;5065492;28;20259;-64
2021/09/30 12:31:29;;;;;;;7.63;1.40;;;;;;;16.65;61.67;99590.97;5065341;28;20186;-64
2021/09/30 12:33:56;;;;;;;6.47;1.33;;;;;;;16.63;60.87;99584.84;5065673;28;20048;-64
2021/09/30 12:36:22;;;;;;;16.58;1.80;;;;;;;16.58;59.55;99581.44;5065596;28;20021;-64
2021/09/30 12:39:03;;;;;;;4.00;0.90;;;;;;;16.45;61.57;99587.16;5064900;28;20307;-64
2021/09/30 12:41:30;;;;;;;13.32;1.23;;;;;;;16.50;58.52;99572.81;5065272;28;20021;-64
2021/09/30 12:44:09;;;;;;;4.43;0.82;;;;;;;16.64;60.00;99559.13;5065200;28;20087;-64
2021/09/30 12:46:45;;;;;;;5.32;1.10;;;;;;;16.62;56.56;99564.50;5065476;28;20025;-64
2021/09/30 12:49:11;;;;;;;6.38;0.80;;;;;;;16.59;59.20;99556.63;5065074;28;20244;-64
2021/09/30 12:51:36;;;;;;;10.30;1.38;;;;;;;16.52;57.38;99557.69;5065021;28;20080;-64
2021/09/30 12:54:02;;;;;;;7.53;0.80;;;;;;;16.43;56.32;99563.28;5064687;28;20024;-64
2021/09/30 12:56:31;;;;;;;7.43;0.85;;;;;;;16.31;59.04;99570.69;5065008;28;20059;-64
2021/09/30 12:59:17;;;;;;;5.68;1.30;;;;;;;16.40;57.95;99563.34;5063812;28;20025;-64
2021/09/30 13:01:43;;;;;;;6.63;0.82;;;;;;;16.39;54.28;99558.91;5063837;28;20024;-64
2021/09/30 13:04:21;;;;;;;6.57;1.00;;;;;;;16.35;60.09;99556.38;5064808;28;20025;-64
2021/09/30 13:06:59;;;;;;;2.60;0.82;;;;;;;16.50;57.92;99564.84;5064452;28;20025;-64
2021/09/30 13:09:38;;;;;;;7.60;1.08;;;;;;;16.29;58.37;99549.47;5064693;28;20025;-65
2021/09/30 13:12:04;;;;;;;7.05;1.55;;;;;;;16.37;57.23;99552.81;5064587;28;20079;-64
2021/09/30 13:14:34;;;;;;;10.57;1.30;;;;;;;16.29;59.17;99549.47;5064567;28;20057;-64
2021/09/30 13:17:05;;;;;;;10.38;1.17;;;;;;;16.24;56.75;99551.41;5064607;28;20066;-64
2021/09/30 13:19:40;;;;;;;5.85;0.95;;;;;;;16.30;58.62;99545.03;5064128;28;20049;-64
2021/09/30 13:22:07;;;;;;;15.63;1.50;;;;;;;16.29;60.13;99544.16;5064426;28;20049;-64
2021/09/30 13:24:35;;;;;;;9.43;1.15;;;;;;;16.40;59.71;99547.41;5064413;28;20115;-64
2021/09/30 13:27:02;;;;;;;7.55;1.10;;;;;;;16.45;58.02;99536.69;5064329;28;20025;-64
2021/09/30 13:29:27;;;;;;;5.85;0.77;;;;;;;16.37;57.89;99536.84;5064249;28;20092;-64
2021/09/30 13:31:53;;;;;;;6.03;0.98;;;;;;;16.40;57.92;99531.47;5063868;28;20021;-64
2021/09/30 13:34:19;;;;;;;5.18;1.13;;;;;;;16.36;58.43;99529.78;5064249;28;20088;-64
2021/09/30 13:36:44;;;;;;;4.90;0.70;;;;;;;16.10;59.84;99540.25;5064108;28;20127;-64
2021/09/30 13:39:10;;;;;;;4.18;0.80;;;;;;;15.92;62.35;99543.44;5063153;28;20048;-64
2021/09/30 13:41:35;;;;;;;4.35;1.10;;;;;;;15.72;63.66;99536.88;5052377;28;20021;-69
2021/09/30 13:44:01;;;;;;;6.55;0.70;;;;;;;15.62;61.27;99544.19;5050024;28;20021;-65
2021/09/30 13:46:26;;;;;;;4.40;0.82;;;;;;;15.45;63.79;99541.09;5044945;28;20076;-65
2021/09/30 13:48:51;;;;;;;11.63;0.80;;;;;;;15.49;64.15;99529.50;5044934;28;20026;-65
2021/09/30 13:51:17;;;;;;;7.63;1.00;;;;;;;15.49;64.89;99532.16;5044840;28;20325;-65
2021/09/30 13:53:42;;;;;;;8.32;0.90;;;;;;;15.64;63.18;99521.16;5044879;28;20041;-65
2021/09/30 13:56:07;;;;;;;8.13;0.80;;;;;;;15.77;57.88;99516.38;5045067;28;20021;-65
2021/09/30 13:58:35;;;;;;;5.10;1.00;;;;;;;15.88;56.65;99509.88;5044762;28;20022;-65
2021/09/30 14:01:01;;;;;;;4.07;0.70;;;;;;;16.04;59.22;99500.59;5044716;28;20190;-65
2021/09/30 14:03:26;;;;;;;12.52;1.20;;;;;;;16.20;55.30;99491.28;5044594;28;20032;-64
2021/09/30 14:05:52;;;;;;;3.88;0.70;;;;;;;16.29;55.63;99499.00;5044646;28;20216;-64
2021/09/30 14:08:19;;;;;;;8.07;0.90;;;;;;;16.26;57.36;99496.41;5044535;28;20029;-64
2021/09/30 14:10:45;;;;;;;9.27;0.90;;;;;;;16.22;57.74;99500.09;5044466;28;20029;-64
2021/09/30 14:13:15;;;;;;;10.38;1.23;;;;;;;16.00;59.78;99498.94;5044098;28;20376;-64
2021/09/30 14:15:41;;;;;;;6.90;1.13;;;;;;;15.93;58.04;99486.75;5044823;28;20088;-64
2021/09/30 14:18:06;;;;;;;7.28;1.23;;;;;;;15.78;57.62;99484.50;5044414;28;20036;-64
2021/09/30 14:20:32;;;;;;;4.20;0.65;;;;;;;15.75;56.72;99487.22;5044655;28;20021;-64
2021/09/30 14:22:57;;;;;;;3.42;0.60;;;;;;;15.61;58.78;99481.41;5044345;28;20017;-64
2021/09/30 14:25:23;;;;;;;6.60;1.30;;;;;;;15.42;56.67;99482.81;5044324;28;20025;-64
2021/09/30 14:27:48;;;;;;;5.05;1.02;;;;;;;15.42;58.22;99474.84;5044266;28;20317;-64
2021/09/30 14:30:14;;;;;;;7.20;0.75;;;;;;;15.55;58.39;99473.63;5044253;28;20398;-64
2021/09/30 14:32:39;;;;;;;5.57;1.05;;;;;;;15.43;59.61;99479.22;5044231;28;20063;-64
2021/09/30 14:35:05;;;;;;;10.13;0.88;;;;;;;15.41;59.87;99465.13;5048606;28;20270;-64
2021/09/30 14:37:30;;;;;;;5.30;0.60;;;;;;;15.29;60.74;99465.41;5059938;28;20028;-66